createdAt,value
2022-11-05T00:01:48.931Z,15.40
2022-11-05T00:04:34.298Z,19.70
2022-11-05T00:07:35.268Z,17.23
2022-11-05T00:10:22.818Z,15.13
2022-11-05T00:13:08.297Z,17.93
2022-11-05T00:15:53.269Z,16.15
2022-11-05T00:18:19.689Z,16.45
2022-11-05T00:20:46.252Z,18.77
2022-11-05T00:23:30.965Z,16.98
2022-11-05T00:25:59.560Z,16.70
2022-11-05T00:28:28.248Z,18.50
2022-11-05T00:30:59.731Z,18.63
2022-11-05T00:33:26.112Z,18.33
2022-11-05T00:35:52.588Z,17.35
2022-11-05T00:38:18.979Z,17.13
2022-11-05T00:40:45.706Z,23.40
2022-11-05T00:43:30.744Z,16.85
2022-11-05T00:45:57.130Z,20.23
2022-11-05T00:48:41.807Z,20.33
2022-11-05T00:51:08.488Z,20.47
2022-11-05T00:53:35.347Z,20.23
2022-11-05T00:56:02.124Z,21.45
2022-11-05T00:58:29.184Z,21.40
2022-11-05T01:01:00.246Z,22.40
2022-11-05T01:03:30.958Z,23.33
2022-11-05T01:06:18.726Z,26.92
2022-11-05T01:08:46.271Z,24.83
2022-11-05T01:11:34.303Z,28.13
2022-11-05T01:14:02.775Z,24.77
2022-11-05T01:16:29.472Z,23.63
2022-11-05T01:18:56.271Z,25.77
2022-11-05T01:21:22.662Z,23.77
2022-11-05T01:23:49.179Z,24.83
2022-11-05T01:26:15.676Z,25.00
2022-11-05T01:28:42.111Z,25.07
2022-11-05T01:31:08.600Z,24.00
2022-11-05T01:33:34.983Z,22.17
2022-11-05T01:36:01.419Z,23.48
2022-11-05T01:38:27.778Z,20.15
2022-11-05T01:40:54.203Z,22.57
2022-11-05T01:43:23.575Z,23.38
2022-11-05T01:45:53.265Z,22.70
2022-11-05T01:48:38.353Z,23.20
2022-11-05T01:51:08.743Z,20.85
2022-11-05T01:53:49.195Z,22.97
2022-11-05T01:56:34.459Z,24.83
2022-11-05T01:59:06.001Z,23.55
2022-11-05T02:01:33.166Z,25.95
2022-11-05T02:04:03.804Z,25.02
2022-11-05T02:06:34.166Z,25.53
2022-11-05T02:09:06.566Z,30.60
2022-11-05T02:11:33.466Z,29.17
2022-11-05T02:14:00.067Z,27.52
2022-11-05T02:16:45.681Z,26.38
2022-11-05T02:19:38.802Z,17.43
2022-11-05T02:22:22.139Z,12.85
2022-11-05T02:24:56.299Z,12.07
2022-11-05T02:27:44.086Z,8.82
2022-11-05T02:30:19.492Z,8.32
2022-11-05T02:33:14.021Z,6.90
2022-11-05T02:35:57.250Z,8.63
2022-11-05T02:38:31.258Z,8.05
2022-11-05T02:41:10.293Z,5.10
2022-11-05T02:43:52.703Z,4.78
2022-11-05T02:46:26.740Z,4.40
2022-11-05T02:49:18.871Z,4.55
2022-11-05T02:51:52.207Z,3.63
2022-11-05T02:54:33.928Z,4.28
2022-11-05T02:57:03.003Z,3.13
2022-11-05T02:59:29.615Z,4.47
2022-11-05T03:01:57.250Z,3.97
2022-11-05T03:04:24.995Z,6.90
2022-11-05T03:07:36.076Z,3.72
2022-11-05T03:10:08.275Z,2.65
2022-11-05T03:12:52.285Z,2.97
2022-11-05T03:15:39.363Z,4.28
2022-11-05T03:18:05.661Z,3.10
2022-11-05T03:20:48.424Z,2.55
2022-11-05T03:23:29.116Z,2.47
2022-11-05T03:26:12.471Z,1.57
2022-11-05T03:28:42.961Z,1.75
2022-11-05T03:31:14.090Z,2.42
2022-11-05T03:33:43.091Z,2.88
2022-11-05T03:36:25.036Z,3.15
2022-11-05T03:38:54.123Z,1.80
2022-11-05T03:41:22.647Z,1.55
2022-11-05T03:43:51.914Z,2.10
2022-11-05T03:46:40.957Z,5.95
2022-11-05T03:49:12.833Z,3.30
2022-11-05T03:51:43.969Z,2.87
2022-11-05T03:54:10.837Z,1.92
2022-11-05T03:56:53.408Z,4.18
2022-11-05T03:59:20.387Z,3.50
2022-11-05T04:01:47.373Z,5.18
2022-11-05T04:04:13.794Z,3.87
2022-11-05T04:06:58.727Z,3.40
2022-11-05T04:09:48.052Z,5.00
2022-11-05T04:12:32.818Z,5.50
2022-11-05T04:14:59.184Z,4.53
2022-11-05T04:17:25.575Z,4.40
2022-11-05T04:20:10.938Z,7.75
2022-11-05T04:22:55.684Z,7.07
2022-11-05T04:25:22.487Z,6.60
2022-11-05T04:27:49.523Z,6.90
2022-11-05T04:30:20.681Z,10.53
2022-11-05T04:33:07.320Z,10.73
2022-11-05T04:35:39.232Z,10.65
2022-11-05T04:38:08.039Z,11.45
2022-11-05T04:40:35.158Z,11.35
2022-11-05T04:43:01.685Z,13.47
2022-11-05T04:45:31.878Z,14.07
2022-11-05T04:47:58.326Z,15.27
2022-11-05T04:50:24.666Z,14.20
2022-11-05T04:52:51.239Z,14.80
2022-11-05T04:55:17.868Z,13.17
2022-11-05T04:57:47.951Z,15.60
2022-11-05T05:00:14.404Z,14.32
2022-11-05T05:02:40.809Z,18.95
2022-11-05T05:05:07.317Z,15.27
2022-11-05T05:07:34.563Z,15.93
2022-11-05T05:10:01.801Z,17.35
2022-11-05T05:12:28.359Z,16.55
2022-11-05T05:14:54.728Z,13.60
2022-11-05T05:17:21.073Z,17.98
2022-11-05T05:20:06.106Z,14.57
2022-11-05T05:22:32.477Z,14.70
2022-11-05T05:24:59.989Z,13.82
2022-11-05T05:27:29.954Z,16.42
2022-11-05T05:29:58.025Z,15.52
2022-11-05T05:32:25.709Z,15.07
2022-11-05T05:34:52.666Z,15.15
2022-11-05T05:37:19.667Z,18.10
2022-11-05T05:39:47.711Z,15.85
2022-11-05T05:42:14.676Z,15.20
2022-11-05T05:44:41.245Z,15.10
2022-11-05T05:47:07.678Z,17.38
2022-11-05T05:49:34.044Z,20.60
2022-11-05T05:52:00.446Z,15.95
2022-11-05T05:54:31.895Z,16.05
2022-11-05T05:56:59.894Z,15.77
2022-11-05T05:59:26.311Z,15.73
2022-11-05T06:01:53.313Z,19.45
2022-11-05T06:04:20.562Z,16.70
2022-11-05T06:06:46.994Z,17.60
2022-11-05T06:09:14.409Z,18.03
2022-11-05T06:11:41.227Z,16.75
2022-11-05T06:14:10.863Z,17.80
2022-11-05T06:16:38.918Z,17.83
2022-11-05T06:19:06.400Z,18.63
2022-11-05T06:21:33.029Z,18.30
2022-11-05T06:24:00.242Z,19.23
2022-11-05T06:26:26.585Z,18.02
2022-11-05T06:28:52.952Z,17.17
2022-11-05T06:31:19.340Z,16.98
2022-11-05T06:33:47.143Z,16.80
2022-11-05T06:36:17.970Z,18.23
2022-11-05T06:38:44.575Z,14.43
2022-11-05T06:41:11.120Z,17.33
2022-11-05T06:43:38.564Z,15.45
2022-11-05T06:46:05.673Z,18.27
2022-11-05T06:48:32.306Z,15.63
2022-11-05T06:50:58.692Z,18.77
2022-11-05T06:53:25.227Z,15.25
2022-11-05T06:55:51.646Z,15.75
2022-11-05T06:58:18.186Z,13.30
2022-11-05T07:00:44.857Z,10.07
2022-11-05T07:03:12.614Z,10.93
2022-11-05T07:05:43.669Z,10.68
2022-11-05T07:08:10.021Z,13.50
2022-11-05T07:10:36.391Z,11.13
2022-11-05T07:13:07.795Z,12.90
2022-11-05T07:15:34.904Z,10.90
2022-11-05T07:18:01.829Z,11.48
2022-11-05T07:20:33.267Z,10.40
2022-11-05T07:23:11.445Z,12.17
2022-11-05T07:25:38.420Z,13.55
2022-11-05T07:28:05.414Z,10.65
2022-11-05T07:30:33.357Z,11.63
2022-11-05T07:33:00.170Z,12.57
2022-11-05T07:35:26.572Z,10.97
2022-11-05T07:37:54.555Z,12.00
2022-11-05T07:40:22.908Z,12.88
2022-11-05T07:42:54.531Z,13.40
2022-11-05T07:45:21.332Z,10.80
2022-11-05T07:47:56.491Z,15.13
2022-11-05T07:50:25.356Z,15.52
2022-11-05T07:52:52.020Z,14.00
2022-11-05T07:55:20.140Z,12.88
2022-11-05T07:57:48.750Z,14.80
2022-11-05T08:00:18.122Z,15.27
2022-11-05T08:02:44.713Z,11.73
2022-11-05T08:05:11.289Z,17.55
2022-11-05T08:07:37.718Z,13.90
2022-11-05T08:10:04.547Z,14.55
2022-11-05T08:12:32.024Z,13.07
2022-11-05T08:14:58.523Z,12.65
2022-11-05T08:17:24.940Z,10.75
2022-11-05T08:19:51.295Z,12.45
2022-11-05T08:22:17.647Z,16.23
2022-11-05T08:24:43.980Z,11.90
2022-11-05T08:27:10.368Z,15.23
2022-11-05T08:29:36.746Z,11.25
2022-11-05T08:32:03.220Z,11.00
2022-11-05T08:34:29.557Z,12.50
2022-11-05T08:36:55.951Z,9.53
2022-11-05T08:39:22.354Z,12.35
2022-11-05T08:41:48.727Z,7.65
2022-11-05T08:44:15.064Z,9.25
2022-11-05T08:46:41.902Z,9.30
2022-11-05T08:49:08.369Z,9.87
2022-11-05T08:51:34.743Z,9.13
2022-11-05T08:54:01.103Z,12.10
2022-11-05T08:56:27.500Z,11.70
2022-11-05T08:58:53.939Z,9.95
2022-11-05T09:01:20.459Z,10.50
2022-11-05T09:03:51.207Z,10.80
2022-11-05T09:06:18.038Z,10.05
2022-11-05T09:08:44.382Z,10.38
2022-11-05T09:11:10.837Z,11.52
2022-11-05T09:13:37.191Z,12.67
2022-11-05T09:16:03.791Z,11.95
2022-11-05T09:18:30.776Z,13.73
2022-11-05T09:20:57.204Z,10.80
2022-11-05T09:23:23.610Z,11.93
2022-11-05T09:25:50.009Z,13.07
2022-11-05T09:28:21.215Z,12.63
2022-11-05T09:30:49.958Z,11.60
2022-11-05T09:33:18.319Z,9.48
2022-11-05T09:35:44.835Z,10.48
2022-11-05T09:38:11.498Z,11.63
2022-11-05T09:41:10.030Z,11.20
2022-11-05T09:43:41.872Z,11.52
2022-11-05T09:46:17.309Z,10.43
2022-11-05T09:48:47.880Z,10.50
2022-11-05T09:51:20.723Z,9.03
2022-11-05T09:53:50.460Z,8.50
2022-11-05T09:56:40.293Z,8.70
2022-11-05T09:59:26.144Z,13.63
2022-11-05T10:02:02.621Z,9.68
2022-11-05T10:04:31.122Z,14.80
2022-11-05T10:07:05.867Z,12.57
2022-11-05T10:09:40.796Z,8.30
2022-11-05T10:12:21.172Z,8.82
2022-11-05T10:15:02.929Z,9.35
2022-11-05T10:17:33.769Z,7.57
2022-11-05T10:20:30.457Z,9.35
2022-11-05T10:23:01.125Z,6.85
2022-11-05T10:25:35.069Z,6.15
2022-11-05T10:28:04.599Z,6.28
2022-11-05T10:30:31.581Z,4.90
2022-11-05T10:33:02.263Z,6.00
2022-11-05T10:35:33.933Z,6.68
2022-11-05T10:38:01.918Z,5.55
2022-11-05T10:40:51.210Z,6.53
2022-11-05T10:43:24.942Z,6.73
2022-11-05T10:46:18.999Z,6.18
2022-11-05T10:49:11.126Z,8.70
2022-11-05T10:51:38.372Z,5.35
2022-11-05T10:54:16.917Z,6.47
2022-11-05T10:56:43.437Z,4.80
2022-11-05T10:59:22.879Z,6.15
2022-11-05T11:02:20.509Z,3.35
2022-11-05T11:04:52.755Z,5.50
2022-11-05T11:07:25.517Z,6.47
2022-11-05T11:09:52.653Z,4.23
2022-11-05T11:12:25.771Z,6.00
2022-11-05T11:15:13.117Z,4.43
2022-11-05T11:17:39.741Z,5.15
2022-11-05T11:20:25.991Z,3.13
2022-11-05T11:23:17.267Z,4.63
2022-11-05T11:26:00.507Z,3.03
2022-11-05T11:28:33.530Z,3.88
2022-11-05T11:31:20.784Z,4.03
2022-11-05T11:33:50.420Z,4.88
2022-11-05T11:36:19.735Z,7.63
2022-11-05T11:38:46.409Z,3.05
2022-11-05T11:41:18.619Z,3.53
2022-11-05T11:43:45.544Z,4.07
2022-11-05T11:46:16.183Z,3.88
2022-11-05T11:48:47.328Z,5.07
2022-11-05T11:51:40.552Z,3.80
2022-11-05T11:54:19.720Z,4.32
2022-11-05T11:56:47.904Z,5.03
2022-11-05T11:59:47.197Z,5.38
2022-11-05T12:02:27.943Z,6.10
2022-11-05T12:05:32.102Z,5.28
2022-11-05T12:08:36.066Z,5.43
2022-11-05T12:11:12.997Z,4.05
2022-11-05T12:14:23.859Z,6.07
2022-11-05T12:17:07.242Z,7.07
2022-11-05T12:19:34.231Z,4.38
2022-11-05T12:22:25.333Z,5.20
2022-11-05T12:25:14.412Z,3.60
2022-11-05T12:27:52.957Z,5.10
2022-11-05T12:30:21.485Z,2.13
2022-11-05T12:33:12.663Z,5.45
2022-11-05T12:36:10.310Z,4.15
2022-11-05T12:38:53.260Z,2.97
2022-11-05T12:41:33.109Z,2.15
2022-11-05T12:44:35.893Z,2.00
2022-11-05T12:47:18.592Z,2.25
2022-11-05T12:49:50.977Z,3.22
2022-11-05T12:52:35.592Z,3.35
2022-11-05T12:55:13.345Z,2.40
2022-11-05T12:57:42.352Z,4.53
2022-11-05T13:00:18.656Z,3.40
2022-11-05T13:03:10.199Z,2.97
2022-11-05T13:05:45.603Z,4.63
2022-11-05T13:08:18.853Z,4.63
2022-11-05T13:10:51.893Z,3.53
2022-11-05T13:13:40.765Z,5.00
2022-11-05T13:16:45.337Z,2.83
2022-11-05T13:19:29.490Z,4.85
2022-11-05T13:22:21.947Z,5.25
2022-11-05T13:24:50.880Z,4.60
2022-11-05T13:27:45.854Z,4.05
2022-11-05T13:30:20.710Z,5.60
2022-11-05T13:33:04.170Z,5.57
2022-11-05T13:35:37.338Z,5.60
2022-11-05T13:38:26.138Z,4.60
2022-11-05T13:41:11.941Z,4.70
2022-11-05T13:44:02.412Z,7.53
2022-11-05T13:46:40.806Z,5.63
2022-11-05T13:49:43.942Z,12.18
2022-11-05T13:52:28.329Z,4.00
2022-11-05T13:55:17.894Z,4.13
2022-11-05T13:57:51.577Z,4.07
2022-11-05T14:00:22.202Z,5.82
2022-11-05T14:02:56.791Z,6.88
2022-11-05T14:05:40.057Z,3.33
2022-11-05T14:08:12.307Z,6.28
2022-11-05T14:10:43.772Z,5.47
2022-11-05T14:13:25.455Z,4.20
2022-11-05T14:16:04.349Z,4.68
2022-11-05T14:18:38.772Z,3.33
2022-11-05T14:21:26.408Z,5.30
2022-11-05T14:24:19.493Z,7.93
2022-11-05T14:27:05.769Z,5.32
2022-11-05T14:29:40.550Z,5.43
2022-11-05T14:32:21.830Z,4.80
2022-11-05T14:35:04.140Z,5.25
2022-11-05T14:37:36.950Z,4.68
2022-11-05T14:40:39.578Z,3.85
2022-11-05T14:43:17.165Z,5.93
2022-11-05T14:45:54.600Z,5.47
2022-11-05T14:48:46.524Z,4.63
2022-11-05T14:51:28.184Z,4.95
2022-11-05T14:54:17.888Z,5.72
2022-11-05T14:56:56.312Z,6.57
2022-11-05T14:59:31.347Z,6.90
2022-11-05T15:02:05.067Z,6.22
2022-11-05T15:04:35.698Z,6.82
2022-11-05T15:07:02.010Z,5.03
2022-11-05T15:09:46.587Z,5.93
2022-11-05T15:12:16.796Z,5.40
2022-11-05T15:14:57.284Z,6.55
2022-11-05T15:17:29.904Z,8.95
2022-11-05T15:20:18.623Z,5.60
2022-11-05T15:22:49.438Z,5.13
2022-11-05T15:25:24.167Z,5.70
2022-11-05T15:28:01.907Z,6.60
2022-11-05T15:30:28.368Z,5.20
2022-11-05T15:32:54.751Z,5.82
2022-11-05T15:35:28.612Z,7.47
2022-11-05T15:38:02.200Z,5.10
2022-11-05T15:40:31.355Z,7.05
2022-11-05T15:43:17.230Z,6.07
2022-11-05T15:45:56.971Z,7.03
2022-11-05T15:48:23.307Z,8.88
2022-11-05T15:50:49.912Z,6.53
2022-11-05T15:56:39.591Z,7.00
2022-11-05T15:59:27.628Z,5.85
2022-11-05T16:01:58.080Z,8.50
2022-11-05T16:04:33.397Z,7.80
2022-11-05T16:07:06.723Z,6.47
2022-11-05T16:09:36.061Z,7.55
2022-11-05T16:12:20.945Z,9.35
2022-11-05T16:14:57.980Z,6.88
2022-11-05T16:17:27.563Z,11.03
2022-11-05T16:19:54.443Z,12.80
2022-11-05T16:22:20.872Z,11.02
2022-11-05T16:24:47.823Z,13.90
2022-11-05T16:27:20.062Z,10.77
2022-11-05T16:29:52.881Z,14.23
2022-11-05T16:32:30.287Z,20.45
2022-11-05T16:35:00.674Z,12.57
2022-11-05T16:37:28.951Z,25.90
2022-11-05T16:39:55.606Z,19.58
2022-11-05T16:42:22.000Z,20.00
2022-11-05T16:44:52.703Z,26.05
2022-11-05T16:47:20.382Z,25.15
2022-11-05T16:49:50.541Z,24.35
2022-11-05T16:52:16.951Z,24.73
2022-11-05T16:54:43.371Z,26.13
2022-11-05T16:57:28.335Z,27.75
2022-11-05T16:59:55.828Z,25.50
2022-11-05T17:02:22.861Z,24.48
2022-11-05T17:04:49.442Z,24.17
2022-11-05T17:07:16.116Z,18.07
2022-11-05T17:09:42.488Z,23.20
2022-11-05T17:12:11.041Z,21.40
2022-11-05T17:14:37.414Z,22.83
2022-11-05T17:17:04.990Z,30.23
2022-11-05T17:19:31.605Z,24.03
2022-11-05T17:21:57.965Z,24.83
2022-11-05T17:24:24.340Z,21.52
2022-11-05T17:26:50.714Z,23.75
2022-11-05T17:29:17.075Z,19.98
2022-11-05T17:31:43.408Z,18.07
2022-11-05T17:34:10.507Z,20.52
2022-11-05T17:36:36.887Z,21.77
2022-11-05T17:39:03.364Z,27.17
2022-11-05T17:41:29.779Z,23.13
2022-11-05T17:43:57.339Z,30.60
2022-11-05T17:46:24.258Z,30.52
2022-11-05T17:48:51.278Z,30.48
2022-11-05T17:51:18.962Z,27.52
2022-11-05T17:53:47.215Z,26.83
2022-11-05T17:56:24.605Z,23.33
2022-11-05T17:58:55.956Z,24.35
2022-11-05T18:01:31.632Z,23.50
2022-11-05T18:04:01.261Z,24.88
2022-11-05T18:06:30.400Z,26.45
2022-11-05T18:08:56.743Z,22.80
2022-11-05T18:11:23.086Z,20.92
2022-11-05T18:13:49.457Z,16.90
2022-11-05T18:16:15.873Z,20.13
2022-11-05T18:18:42.250Z,19.08
2022-11-05T18:21:08.689Z,16.67
2022-11-05T18:23:35.119Z,13.93
2022-11-05T18:26:01.528Z,12.02
2022-11-05T18:28:30.977Z,15.18
2022-11-05T18:30:57.347Z,13.70
2022-11-05T18:33:23.782Z,15.03
2022-11-05T18:35:50.145Z,20.23
2022-11-05T18:38:16.536Z,18.70
2022-11-05T18:40:42.905Z,19.23
2022-11-05T18:43:09.621Z,15.68
2022-11-05T18:45:36.242Z,11.13
2022-11-05T18:48:03.193Z,19.17
2022-11-05T18:50:30.035Z,14.98
2022-11-05T18:52:56.629Z,12.52
2022-11-05T18:55:24.015Z,9.93
2022-11-05T18:57:50.462Z,13.13
2022-11-05T19:00:17.129Z,12.18
2022-11-05T19:02:43.604Z,20.38
2022-11-05T19:07:56.697Z,16.48
2022-11-05T19:10:23.087Z,17.30
2022-11-05T19:12:49.461Z,18.20
2022-11-05T19:15:16.225Z,18.92
2022-11-05T19:17:43.123Z,20.27
2022-11-05T19:20:09.889Z,22.38
2022-11-05T19:22:36.373Z,17.80
2022-11-05T19:25:03.259Z,13.50
2022-11-05T19:27:29.707Z,11.88
2022-11-05T19:29:56.185Z,12.70
2022-11-05T19:32:22.613Z,15.07
2022-11-05T19:34:48.959Z,15.33
2022-11-05T19:37:15.876Z,15.88
2022-11-05T19:39:42.305Z,17.48
2022-11-05T19:42:08.678Z,15.90
2022-11-05T19:44:35.127Z,17.42
2022-11-05T19:47:01.482Z,17.40
2022-11-05T19:49:28.464Z,15.95
2022-11-05T19:51:55.112Z,15.05
2022-11-05T19:54:21.733Z,17.90
2022-11-05T19:56:50.434Z,19.77
2022-11-05T19:59:17.000Z,21.83
2022-11-05T20:01:43.618Z,23.25
2022-11-05T20:04:11.873Z,18.85
2022-11-05T20:06:39.929Z,18.70
2022-11-05T20:09:27.117Z,17.83
2022-11-05T20:11:56.047Z,18.30
2022-11-05T20:14:23.547Z,17.35
2022-11-05T20:16:50.682Z,16.45
2022-11-05T20:19:20.682Z,12.65
2022-11-05T20:21:47.591Z,13.02
2022-11-05T20:24:22.383Z,17.90
2022-11-05T20:26:50.417Z,21.17
2022-11-05T20:29:16.901Z,14.18
2022-11-05T20:31:43.345Z,15.20
2022-11-05T20:34:10.421Z,16.15
2022-11-05T20:36:36.784Z,14.70
2022-11-05T20:39:03.822Z,15.77
2022-11-05T20:41:31.433Z,12.13
2022-11-05T20:43:57.943Z,16.15
2022-11-05T20:46:24.684Z,16.20
2022-11-05T20:48:51.435Z,14.37
2022-11-05T20:51:21.089Z,13.90
2022-11-05T20:53:47.822Z,11.65
2022-11-05T20:56:23.620Z,14.70
2022-11-05T20:58:50.423Z,12.73
2022-11-05T21:01:18.075Z,16.37
2022-11-05T21:03:45.646Z,15.57
2022-11-05T21:06:12.809Z,14.25
2022-11-05T21:08:39.995Z,15.88
2022-11-05T21:11:07.180Z,13.13
2022-11-05T21:13:33.971Z,12.70
2022-11-05T21:16:01.393Z,13.50
2022-11-05T21:18:30.353Z,13.18
2022-11-05T21:20:56.939Z,13.68
2022-11-05T21:23:23.381Z,15.15
2022-11-05T21:25:49.785Z,14.40
2022-11-05T21:28:16.594Z,13.60
2022-11-05T21:30:45.650Z,15.57
2022-11-05T21:33:14.289Z,13.60
2022-11-05T21:35:45.967Z,13.60
2022-11-05T21:38:14.550Z,17.43
2022-11-05T21:40:41.668Z,16.70
2022-11-05T21:43:08.789Z,19.00
2022-11-05T21:45:38.320Z,19.67
2022-11-05T21:48:05.042Z,17.63
2022-11-05T21:50:49.846Z,17.70
2022-11-05T21:53:35.978Z,18.63
2022-11-05T21:56:25.966Z,16.80
2022-11-05T21:59:10.723Z,18.27
2022-11-05T22:01:37.203Z,18.15
2022-11-05T22:04:03.726Z,17.57
2022-11-05T22:06:32.997Z,15.30
2022-11-05T22:08:59.479Z,15.88
2022-11-05T22:11:26.010Z,15.80
2022-11-05T22:13:53.143Z,20.23
2022-11-05T22:16:19.525Z,15.80
2022-11-05T22:18:45.881Z,17.80
2022-11-05T22:21:20.625Z,17.52
2022-11-05T22:23:46.976Z,16.67
2022-11-05T22:26:13.443Z,15.20
2022-11-05T22:28:39.771Z,16.50
2022-11-05T22:31:15.653Z,18.00
2022-11-05T22:33:42.872Z,17.33
2022-11-05T22:36:09.897Z,18.50
2022-11-05T22:38:36.616Z,18.08
2022-11-05T22:41:12.887Z,21.00
2022-11-05T22:43:40.099Z,25.75
2022-11-05T22:46:08.951Z,21.67
2022-11-05T22:48:36.562Z,15.93
2022-11-05T22:51:05.144Z,17.67
2022-11-05T22:53:32.128Z,15.83
2022-11-05T22:55:58.466Z,15.73
2022-11-05T22:58:24.874Z,15.77
2022-11-05T23:00:51.220Z,14.77
2022-11-05T23:03:17.594Z,14.73
2022-11-05T23:05:43.957Z,15.40
2022-11-05T23:08:28.715Z,15.35
2022-11-05T23:11:13.458Z,14.65
2022-11-05T23:13:39.805Z,13.07
2022-11-05T23:16:25.035Z,17.92
2022-11-05T23:19:09.828Z,10.80
2022-11-05T23:22:08.312Z,15.57
2022-11-05T23:24:34.654Z,13.65
2022-11-05T23:27:00.990Z,13.52
2022-11-05T23:29:27.812Z,14.02
2022-11-05T23:32:12.764Z,12.40
2022-11-05T23:34:39.407Z,14.25
2022-11-05T23:37:24.901Z,12.15
2022-11-05T23:39:51.495Z,13.60
2022-11-05T23:42:37.039Z,13.77
2022-11-05T23:45:23.223Z,13.03
2022-11-05T23:48:08.437Z,12.55
2022-11-05T23:50:39.625Z,15.77
2022-11-05T23:53:06.315Z,12.45
2022-11-05T23:55:32.709Z,12.80
2022-11-05T23:57:59.090Z,13.03
